createdAt,value
2019-03-08T00:00:41.315Z,23.32
2019-03-08T00:03:09.467Z,23.29
2019-03-08T00:05:38.062Z,23.31
2019-03-08T00:08:06.064Z,23.30
2019-03-08T00:10:34.039Z,23.29
2019-03-08T00:13:02.213Z,23.30
2019-03-08T00:15:30.393Z,23.29
2019-03-08T00:17:58.211Z,23.29
2019-03-08T00:20:26.029Z,23.30
2019-03-08T00:22:54.610Z,23.29
2019-03-08T00:25:22.442Z,23.29
2019-03-08T00:27:50.831Z,23.28
2019-03-08T00:30:18.661Z,23.28
2019-03-08T00:32:46.638Z,23.28
2019-03-08T00:35:15.158Z,23.26
2019-03-08T00:37:43.975Z,23.26
2019-03-08T00:40:12.200Z,23.25
2019-03-08T00:42:40.353Z,23.26
2019-03-08T00:45:09.358Z,23.25
2019-03-08T00:47:37.783Z,23.24
2019-03-08T00:50:05.972Z,23.23
2019-03-08T00:52:34.931Z,23.21
2019-03-08T00:55:03.002Z,23.22
2019-03-08T00:57:30.692Z,23.22
2019-03-08T00:59:58.537Z,23.20
2019-03-08T01:02:26.857Z,23.19
2019-03-08T01:04:54.545Z,23.18
2019-03-08T01:07:22.404Z,23.19
2019-03-08T01:09:50.209Z,23.19
2019-03-08T01:12:17.938Z,23.19
2019-03-08T01:14:45.961Z,23.16
2019-03-08T01:17:15.428Z,23.18
2019-03-08T01:19:43.757Z,23.17
2019-03-08T01:22:11.449Z,23.15
2019-03-08T01:24:39.273Z,23.15
2019-03-08T01:27:07.298Z,23.14
2019-03-08T01:29:35.302Z,23.14
2019-03-08T01:32:05.384Z,23.14
2019-03-08T01:34:33.067Z,23.12
2019-03-08T01:37:01.062Z,23.10
2019-03-08T01:39:28.875Z,23.10
2019-03-08T01:41:56.717Z,23.09
2019-03-08T01:44:25.092Z,23.09
2019-03-08T01:46:54.260Z,23.09
2019-03-08T01:49:22.441Z,23.08
2019-03-08T01:51:50.952Z,23.08
2019-03-08T01:54:19.184Z,23.06
2019-03-08T01:56:47.488Z,23.06
2019-03-08T01:59:15.528Z,23.07
2019-03-08T02:01:43.343Z,23.06
2019-03-08T02:04:12.025Z,23.06
2019-03-08T02:06:39.949Z,23.08
2019-03-08T02:09:07.864Z,23.07
2019-03-08T02:11:35.638Z,23.05
2019-03-08T02:14:03.578Z,23.03
2019-03-08T02:16:31.670Z,23.04
2019-03-08T02:19:00.490Z,23.01
2019-03-08T02:21:28.578Z,22.99
2019-03-08T02:23:56.251Z,22.98
2019-03-08T02:26:24.226Z,22.98
2019-03-08T02:28:52.553Z,22.95
2019-03-08T02:31:20.396Z,22.95
2019-03-08T02:33:48.346Z,22.93
2019-03-08T02:36:17.462Z,22.93
2019-03-08T02:38:45.752Z,22.92
2019-03-08T02:41:13.837Z,22.92
2019-03-08T02:43:41.853Z,22.90
2019-03-08T02:46:09.868Z,22.90
2019-03-08T02:48:37.542Z,22.87
2019-03-08T02:51:05.602Z,22.87
2019-03-08T02:53:34.052Z,22.87
2019-03-08T02:56:01.934Z,22.87
2019-03-08T02:58:29.929Z,22.87
2019-03-08T03:00:58.209Z,22.85
2019-03-08T03:03:25.873Z,22.84
2019-03-08T03:05:53.641Z,22.87
2019-03-08T03:08:21.946Z,22.85
2019-03-08T03:10:49.838Z,22.83
2019-03-08T03:13:17.498Z,22.83
2019-03-08T03:15:45.717Z,22.82
2019-03-08T03:18:13.682Z,22.82
2019-03-08T03:20:41.834Z,22.82
2019-03-08T03:23:09.515Z,22.81
2019-03-08T03:25:37.339Z,22.81
2019-03-08T03:28:05.383Z,22.83
2019-03-08T03:30:33.124Z,22.81
2019-03-08T03:33:01.211Z,22.76
2019-03-08T03:35:29.227Z,22.75
2019-03-08T03:37:56.905Z,22.70
2019-03-08T03:40:24.630Z,22.71
2019-03-08T03:42:52.587Z,22.67
2019-03-08T03:45:20.275Z,22.66
2019-03-08T03:47:48.544Z,22.63
2019-03-08T03:50:18.731Z,22.62
2019-03-08T03:52:46.696Z,22.50
2019-03-08T03:55:14.542Z,22.56
2019-03-08T03:57:42.311Z,22.55
2019-03-08T04:00:11.989Z,22.54
2019-03-08T04:02:39.781Z,22.56
2019-03-08T04:05:07.750Z,22.53
2019-03-08T04:07:35.658Z,22.52
2019-03-08T04:10:04.441Z,22.49
2019-03-08T04:12:32.162Z,22.48
2019-03-08T04:14:59.915Z,22.49
2019-03-08T04:17:27.936Z,22.50
2019-03-08T04:19:55.651Z,22.49
2019-03-08T04:22:23.515Z,22.46
2019-03-08T04:24:51.491Z,22.47
2019-03-08T04:27:19.184Z,22.48
2019-03-08T04:29:47.232Z,22.44
2019-03-08T04:32:15.037Z,22.45
2019-03-08T04:34:43.344Z,22.43
2019-03-08T04:37:11.433Z,22.41
2019-03-08T04:39:39.464Z,22.41
2019-03-08T04:42:07.212Z,22.38
2019-03-08T04:44:36.141Z,22.40
2019-03-08T04:47:03.915Z,22.40
2019-03-08T04:49:31.686Z,22.38
2019-03-08T04:52:00.481Z,22.41
2019-03-08T04:54:28.274Z,22.42
2019-03-08T04:56:56.064Z,22.39
2019-03-08T04:59:24.211Z,22.43
2019-03-08T05:01:51.764Z,22.42
2019-03-08T05:04:19.439Z,22.39
2019-03-08T05:06:47.234Z,22.38
2019-03-08T05:09:15.306Z,22.36
2019-03-08T05:11:43.243Z,22.36
2019-03-08T05:14:11.683Z,22.35
2019-03-08T05:16:39.336Z,22.36
2019-03-08T05:19:07.146Z,22.35
2019-03-08T05:21:34.837Z,22.31
2019-03-08T05:24:02.760Z,22.34
2019-03-08T05:26:30.677Z,22.34
2019-03-08T05:29:01.436Z,22.31
2019-03-08T05:31:29.253Z,22.34
2019-03-08T05:34:03.530Z,22.32
2019-03-08T05:36:31.317Z,22.34
2019-03-08T05:38:59.497Z,22.33
2019-03-08T05:41:27.393Z,22.32
2019-03-08T05:44:45.952Z,22.31
2019-03-08T05:47:18.452Z,22.34
2019-03-08T05:49:45.939Z,22.31
2019-03-08T05:52:14.320Z,22.32
2019-03-08T05:54:43.220Z,22.35
2019-03-08T05:57:11.064Z,22.39
2019-03-08T05:59:39.859Z,22.38
2019-03-08T06:02:07.692Z,22.38
2019-03-08T06:04:36.165Z,22.39
2019-03-08T06:07:04.112Z,22.41
2019-03-08T06:09:31.795Z,22.42
2019-03-08T06:11:59.603Z,22.46
2019-03-08T06:14:27.738Z,22.46
2019-03-08T06:16:55.612Z,22.49
2019-03-08T06:19:23.589Z,22.48
2019-03-08T06:21:51.276Z,22.51
2019-03-08T06:24:18.986Z,22.53
2019-03-08T06:26:46.682Z,22.53
2019-03-08T06:29:14.913Z,22.53
2019-03-08T06:31:42.925Z,22.57
2019-03-08T06:34:11.027Z,22.59
2019-03-08T06:36:39.133Z,22.60
2019-03-08T06:39:08.562Z,22.62
2019-03-08T06:41:36.495Z,22.62
2019-03-08T06:44:04.466Z,22.62
2019-03-08T06:46:33.118Z,22.65
2019-03-08T06:49:01.009Z,22.66
2019-03-08T06:51:29.158Z,22.71
2019-03-08T06:53:57.458Z,22.74
2019-03-08T06:56:25.579Z,22.78
2019-03-08T06:59:13.561Z,22.60
2019-03-08T07:01:42.365Z,22.85
2019-03-08T07:04:10.286Z,22.86
2019-03-08T07:06:37.974Z,22.89
2019-03-08T07:09:07.280Z,22.76
2019-03-08T07:11:35.449Z,22.92
2019-03-08T07:14:03.443Z,22.92
2019-03-08T07:16:31.486Z,22.96
2019-03-08T07:18:59.561Z,22.96
2019-03-08T07:21:40.929Z,22.96
2019-03-08T07:24:18.525Z,22.99
2019-03-08T07:27:13.333Z,22.96
2019-03-08T07:30:06.829Z,22.96
2019-03-08T07:32:43.692Z,22.94
2019-03-08T07:35:48.826Z,22.89
2019-03-08T07:38:39.547Z,22.87
2019-03-08T07:41:29.723Z,22.91
2019-03-08T07:44:06.247Z,22.94
2019-03-08T07:47:09.507Z,22.93
2019-03-08T07:50:06.699Z,22.91
2019-03-08T07:52:54.330Z,22.91
2019-03-08T07:55:33.034Z,22.94
2019-03-08T07:58:12.543Z,22.99
2019-03-08T08:01:06.163Z,23.05
2019-03-08T08:03:59.392Z,23.10
2019-03-08T08:06:37.508Z,23.12
2019-03-08T08:09:33.000Z,23.13
2019-03-08T08:12:27.061Z,23.21
2019-03-08T08:15:03.748Z,23.24
2019-03-08T08:17:46.585Z,23.25
2019-03-08T08:20:27.329Z,23.28
2019-03-08T08:23:20.910Z,23.19
2019-03-08T08:25:58.958Z,23.40
2019-03-08T08:28:49.723Z,23.40
2019-03-08T08:31:35.822Z,23.40
2019-03-08T08:34:24.606Z,23.41
2019-03-08T08:37:14.798Z,23.44
2019-03-08T08:40:08.185Z,23.44
2019-03-08T08:42:51.548Z,23.43
2019-03-08T08:45:38.911Z,23.39
2019-03-08T08:48:21.387Z,23.40
2019-03-08T08:51:07.219Z,23.43
2019-03-08T08:53:54.674Z,23.45
2019-03-08T08:56:51.102Z,23.56
2019-03-08T08:59:38.845Z,23.54
2019-03-08T09:02:21.550Z,23.55
2019-03-08T09:05:18.916Z,23.53
2019-03-08T09:07:54.881Z,23.54
2019-03-08T09:10:41.205Z,23.57
2019-03-08T09:13:23.013Z,23.58
2019-03-08T09:16:11.317Z,23.57
2019-03-08T09:19:05.154Z,23.60
2019-03-08T09:21:55.751Z,23.62
2019-03-08T09:24:39.514Z,23.67
2019-03-08T09:27:25.628Z,23.63
2019-03-08T09:30:14.258Z,23.70
2019-03-08T09:32:48.951Z,23.75
2019-03-08T09:35:42.511Z,23.82
2019-03-08T09:38:39.270Z,23.82
2019-03-08T09:41:25.563Z,23.88
2019-03-08T09:44:00.824Z,23.94
2019-03-08T09:46:47.034Z,23.91
2019-03-08T09:49:37.186Z,23.92
2019-03-08T09:52:16.100Z,23.97
2019-03-08T09:55:04.335Z,24.05
2019-03-08T09:57:52.205Z,24.08
2019-03-08T10:00:39.781Z,24.08
2019-03-08T10:03:20.283Z,24.03
2019-03-08T10:06:22.843Z,24.08
2019-03-08T10:09:19.966Z,24.02
2019-03-08T10:12:16.569Z,24.07
2019-03-08T10:15:02.406Z,24.07
2019-03-08T10:17:49.791Z,24.12
2019-03-08T10:20:35.253Z,24.14
2019-03-08T10:23:29.006Z,24.18
2019-03-08T10:26:09.547Z,24.24
2019-03-08T10:28:56.841Z,24.35
2019-03-08T10:31:35.039Z,24.37
2019-03-08T10:34:31.715Z,24.31
2019-03-08T10:37:22.011Z,24.29
2019-03-08T10:40:14.659Z,24.29
2019-03-08T10:42:54.092Z,24.30
2019-03-08T10:45:53.549Z,24.29
2019-03-08T10:48:36.748Z,24.32
2019-03-08T10:51:26.418Z,24.40
2019-03-08T10:54:29.484Z,24.47
2019-03-08T10:57:12.932Z,24.52
2019-03-08T11:00:09.585Z,24.54
2019-03-08T11:02:57.289Z,24.54
2019-03-08T11:05:40.009Z,24.54
2019-03-08T11:08:16.641Z,24.56
2019-03-08T11:10:56.634Z,24.53
2019-03-08T11:13:45.686Z,24.57
2019-03-08T11:16:37.294Z,24.59
2019-03-08T11:19:34.084Z,24.68
2019-03-08T11:22:27.603Z,24.67
2019-03-08T11:25:13.806Z,24.68
2019-03-08T11:27:54.801Z,24.72
2019-03-08T11:30:54.439Z,24.73
2019-03-08T11:33:47.640Z,24.66
2019-03-08T11:36:32.891Z,24.58
2019-03-08T11:39:12.439Z,24.54
2019-03-08T11:42:18.503Z,24.52
2019-03-08T11:45:05.692Z,24.55
2019-03-08T11:47:44.351Z,24.58
2019-03-08T11:50:37.422Z,24.68
2019-03-08T11:53:14.187Z,24.71
2019-03-08T11:56:13.815Z,24.73
2019-03-08T11:59:03.457Z,24.70
2019-03-08T12:01:53.803Z,24.74
2019-03-08T12:04:40.863Z,24.72
2019-03-08T12:07:17.362Z,24.67
2019-03-08T12:10:03.182Z,24.69
2019-03-08T12:12:56.473Z,24.75
2019-03-08T12:15:46.793Z,24.80
2019-03-08T12:18:34.257Z,24.79
2019-03-08T12:21:20.398Z,24.78
2019-03-08T12:24:19.951Z,24.85
2019-03-08T12:27:07.487Z,24.86
2019-03-08T12:30:04.715Z,24.87
2019-03-08T12:32:38.061Z,24.82
2019-03-08T12:35:26.198Z,24.73
2019-03-08T12:38:11.354Z,24.72
2019-03-08T12:41:04.665Z,24.73
2019-03-08T12:43:54.987Z,24.76
2019-03-08T12:46:51.393Z,24.82
2019-03-08T12:49:34.180Z,24.84
2019-03-08T12:52:19.273Z,24.89
2019-03-08T12:55:05.160Z,24.93
2019-03-08T12:58:01.592Z,24.85
2019-03-08T13:00:55.262Z,24.82
2019-03-08T13:03:35.118Z,24.76
2019-03-08T13:06:10.742Z,24.72
2019-03-08T13:08:46.411Z,24.67
2019-03-08T13:11:14.265Z,24.65
2019-03-08T13:13:43.119Z,24.64
2019-03-08T13:16:14.230Z,24.60
2019-03-08T13:18:42.246Z,24.58
2019-03-08T13:21:10.789Z,24.59
2019-03-08T13:23:38.672Z,24.62
2019-03-08T13:26:06.535Z,24.62
2019-03-08T13:28:35.131Z,24.65
2019-03-08T13:31:05.271Z,24.69
2019-03-08T13:33:32.983Z,24.68
2019-03-08T13:36:00.682Z,24.68
2019-03-08T13:38:29.849Z,24.71
2019-03-08T13:40:58.144Z,24.74
2019-03-08T13:43:26.104Z,24.81
2019-03-08T13:46:34.922Z,24.81
2019-03-08T13:49:02.912Z,24.82
2019-03-08T13:51:30.955Z,24.76
2019-03-08T13:53:58.598Z,24.74
2019-03-08T13:56:26.558Z,24.71
2019-03-08T13:58:54.862Z,24.67
2019-03-08T14:01:22.513Z,24.66
2019-03-08T14:03:50.603Z,24.65
2019-03-08T14:06:18.961Z,24.63
2019-03-08T14:08:46.773Z,24.57
2019-03-08T14:11:14.991Z,24.54
2019-03-08T14:13:42.570Z,24.51
2019-03-08T14:16:10.630Z,24.49
2019-03-08T14:18:38.454Z,24.44
2019-03-08T14:21:06.344Z,24.40
2019-03-08T14:23:34.565Z,24.35
2019-03-08T14:26:02.268Z,24.38
2019-03-08T14:28:31.172Z,24.40
2019-03-08T14:31:08.913Z,24.39
2019-03-08T14:33:38.181Z,24.37
2019-03-08T14:36:07.147Z,24.40
2019-03-08T14:38:37.683Z,24.39
2019-03-08T14:41:21.301Z,24.36
2019-03-08T14:44:08.560Z,24.32
2019-03-08T14:46:43.780Z,24.32
2019-03-08T14:49:11.803Z,24.31
2019-03-08T14:51:40.096Z,24.31
2019-03-08T14:54:09.851Z,24.30
2019-03-08T14:56:37.929Z,24.29
2019-03-08T14:59:05.704Z,24.28
2019-03-08T15:01:33.337Z,24.28
2019-03-08T15:04:00.989Z,24.28
2019-03-08T15:06:29.611Z,24.28
2019-03-08T15:08:57.478Z,24.28
2019-03-08T15:11:25.534Z,24.29
2019-03-08T15:13:53.312Z,24.30
2019-03-08T15:16:21.746Z,24.27
2019-03-08T15:18:49.446Z,24.27
2019-03-08T15:21:17.776Z,24.27
2019-03-08T15:23:46.447Z,24.27
2019-03-08T15:26:14.386Z,24.26
2019-03-08T15:28:42.182Z,24.24
2019-03-08T15:31:09.936Z,24.24
2019-03-08T15:33:37.846Z,24.24
2019-03-08T15:36:05.492Z,24.23
2019-03-08T15:38:33.339Z,24.22
2019-03-08T15:41:01.411Z,24.21
2019-03-08T15:43:29.048Z,24.22
2019-03-08T15:45:56.738Z,24.21
2019-03-08T15:48:24.487Z,24.18
2019-03-08T15:50:52.325Z,24.18
2019-03-08T15:53:20.087Z,24.19
2019-03-08T15:55:52.798Z,24.20
2019-03-08T15:58:18.282Z,24.18
2019-03-08T16:00:46.172Z,24.17
2019-03-08T16:03:13.966Z,24.17
2019-03-08T16:05:41.716Z,24.14
2019-03-08T16:08:10.375Z,24.11
2019-03-08T16:10:39.182Z,24.11
2019-03-08T16:13:07.331Z,24.08
2019-03-08T16:15:36.109Z,24.11
2019-03-08T16:18:03.864Z,24.08
2019-03-08T16:20:31.715Z,24.05
2019-03-08T16:23:02.666Z,24.03
2019-03-08T16:25:29.527Z,24.00
2019-03-08T16:27:57.748Z,24.00
2019-03-08T16:30:31.710Z,23.98
2019-03-08T16:33:27.748Z,23.97
2019-03-08T16:36:25.707Z,23.93
2019-03-08T16:39:11.940Z,23.91
2019-03-08T16:42:18.241Z,23.88
2019-03-08T16:45:05.764Z,23.89
2019-03-08T16:47:51.953Z,23.86
2019-03-08T16:50:35.958Z,23.87
2019-03-08T16:53:21.395Z,23.90
2019-03-08T16:55:57.307Z,23.86
2019-03-08T16:58:43.550Z,23.89
2019-03-08T17:01:26.040Z,23.89
2019-03-08T17:04:12.796Z,23.97
2019-03-08T17:06:46.475Z,23.91
2019-03-08T17:09:27.800Z,23.87
2019-03-08T17:12:08.092Z,23.85
2019-03-08T17:15:10.283Z,23.87
2019-03-08T17:18:15.913Z,23.87
2019-03-08T17:21:06.307Z,23.86
2019-03-08T17:24:02.656Z,23.88
2019-03-08T17:26:52.721Z,23.91
2019-03-08T17:29:38.507Z,23.98
2019-03-08T17:32:11.785Z,23.95
2019-03-08T17:35:08.376Z,24.01
2019-03-08T17:37:50.867Z,24.03
2019-03-08T17:40:37.080Z,24.01
2019-03-08T17:43:17.806Z,23.94
2019-03-08T17:45:53.845Z,23.89
2019-03-08T17:48:47.032Z,23.86
2019-03-08T17:51:37.570Z,23.88
2019-03-08T17:54:27.586Z,23.82
2019-03-08T17:57:15.253Z,23.81
2019-03-08T18:00:15.278Z,23.82
2019-03-08T18:02:58.867Z,23.88
2019-03-08T18:05:52.476Z,23.90
2019-03-08T18:08:39.148Z,23.92
2019-03-08T18:11:17.143Z,23.95
2019-03-08T18:14:07.692Z,23.98
2019-03-08T18:16:49.859Z,24.00
2019-03-08T18:19:56.276Z,24.05
2019-03-08T18:22:44.089Z,24.11
2019-03-08T18:25:29.205Z,24.12
2019-03-08T18:28:26.006Z,24.11
2019-03-08T18:31:14.114Z,24.14
2019-03-08T18:33:47.745Z,24.15
2019-03-08T18:36:50.721Z,24.16
2019-03-08T18:39:37.702Z,24.16
2019-03-08T18:42:15.019Z,24.15
2019-03-08T18:45:04.987Z,24.17
2019-03-08T18:47:52.405Z,24.25
2019-03-08T18:50:42.586Z,24.30
2019-03-08T18:53:39.552Z,24.27
2019-03-08T18:56:26.120Z,24.28
2019-03-08T18:59:16.775Z,24.35
2019-03-08T19:02:16.938Z,24.32
2019-03-08T19:05:04.592Z,24.24
2019-03-08T19:07:55.072Z,24.19
2019-03-08T19:10:33.674Z,24.17
2019-03-08T19:13:11.375Z,24.13
2019-03-08T19:15:57.456Z,24.17
2019-03-08T19:18:44.904Z,24.15
2019-03-08T19:21:31.231Z,24.19
2019-03-08T19:24:08.268Z,24.21
2019-03-08T19:26:54.298Z,24.14
2019-03-08T19:29:45.778Z,24.10
2019-03-08T19:32:36.282Z,24.05
2019-03-08T19:35:10.726Z,24.03
2019-03-08T19:37:56.822Z,24.06
2019-03-08T19:41:02.841Z,24.06
2019-03-08T19:43:41.480Z,24.04
2019-03-08T19:46:31.987Z,24.01
2019-03-08T19:49:18.600Z,23.80
2019-03-08T19:52:05.015Z,24.09
2019-03-08T19:54:52.590Z,24.12
2019-03-08T19:57:38.792Z,24.12
2019-03-08T20:00:30.273Z,24.11
2019-03-08T20:03:17.347Z,24.14
2019-03-08T20:05:51.721Z,24.10
2019-03-08T20:08:37.597Z,24.10
2019-03-08T20:11:31.068Z,24.10
2019-03-08T20:14:18.600Z,24.13
2019-03-08T20:17:04.073Z,24.13
2019-03-08T20:19:39.265Z,24.13
2019-03-08T20:22:18.148Z,24.12
2019-03-08T20:25:11.572Z,24.13
2019-03-08T20:28:11.186Z,24.10
2019-03-08T20:30:58.670Z,24.14
2019-03-08T20:33:49.647Z,24.17
2019-03-08T20:36:36.561Z,24.19
2019-03-08T20:39:40.301Z,24.16
2019-03-08T20:42:22.444Z,24.13
2019-03-08T20:45:10.079Z,24.18
2019-03-08T20:47:37.899Z,24.17
2019-03-08T20:50:08.207Z,24.18
2019-03-08T20:52:36.236Z,24.16
2019-03-08T20:55:04.091Z,23.96
2019-03-08T20:57:32.268Z,24.30
2019-03-08T21:00:00.596Z,24.22
2019-03-08T21:02:28.793Z,24.18
2019-03-08T21:04:57.548Z,24.13
2019-03-08T21:07:25.993Z,24.09
2019-03-08T21:09:53.953Z,24.08
2019-03-08T21:12:21.660Z,24.03
2019-03-08T21:14:50.092Z,24.01
2019-03-08T21:17:20.338Z,24.00
2019-03-08T21:19:48.577Z,23.96
2019-03-08T21:22:16.689Z,23.96
2019-03-08T21:24:45.266Z,23.97
2019-03-08T21:27:13.417Z,23.95
2019-03-08T21:29:41.306Z,23.93
2019-03-08T21:32:10.778Z,23.94
2019-03-08T21:34:38.481Z,23.91
2019-03-08T21:37:06.060Z,23.89
2019-03-08T21:39:34.602Z,23.85
2019-03-08T21:42:02.531Z,23.84
2019-03-08T21:44:31.994Z,23.86
2019-03-08T21:46:59.994Z,23.84
2019-03-08T21:49:28.092Z,23.84
2019-03-08T21:51:55.951Z,23.83
2019-03-08T21:54:24.905Z,23.85
2019-03-08T21:56:53.596Z,23.87
2019-03-08T21:59:21.412Z,23.84
2019-03-08T22:01:49.059Z,23.80
2019-03-08T22:04:25.773Z,23.82
2019-03-08T22:06:53.478Z,23.82
2019-03-08T22:09:31.064Z,23.82
2019-03-08T22:11:58.776Z,23.80
2019-03-08T22:14:26.891Z,23.81
2019-03-08T22:16:54.763Z,23.80
2019-03-08T22:19:22.453Z,23.79
2019-03-08T22:21:50.284Z,23.78
2019-03-08T22:24:18.123Z,23.79
2019-03-08T22:26:45.899Z,23.78
2019-03-08T22:29:13.875Z,23.78
2019-03-08T22:31:42.160Z,23.77
2019-03-08T22:34:09.914Z,23.75
2019-03-08T22:36:37.422Z,23.77
2019-03-08T22:39:06.232Z,23.80
2019-03-08T22:41:34.336Z,23.81
2019-03-08T22:44:02.221Z,23.78
2019-03-08T22:46:30.242Z,23.78
2019-03-08T22:48:58.475Z,23.80
2019-03-08T22:51:27.560Z,23.77
2019-03-08T22:53:55.499Z,23.78
2019-03-08T22:56:23.314Z,23.77
2019-03-08T22:58:51.222Z,23.75
2019-03-08T23:01:19.926Z,23.76
2019-03-08T23:03:47.702Z,23.76
2019-03-08T23:06:17.454Z,23.74
2019-03-08T23:08:46.649Z,23.76
2019-03-08T23:11:17.086Z,23.74
2019-03-08T23:13:46.511Z,23.73
2019-03-08T23:16:16.398Z,23.70
2019-03-08T23:18:44.978Z,23.69
2019-03-08T23:21:14.219Z,23.76
2019-03-08T23:23:42.790Z,23.73
2019-03-08T23:26:10.876Z,23.73
2019-03-08T23:28:49.363Z,23.73
2019-03-08T23:31:25.319Z,23.73
2019-03-08T23:33:54.112Z,23.72
2019-03-08T23:36:22.943Z,23.74
2019-03-08T23:38:52.183Z,23.73
2019-03-08T23:41:21.393Z,23.70
2019-03-08T23:43:50.987Z,23.68
2019-03-08T23:46:19.356Z,23.70
2019-03-08T23:48:47.712Z,23.68
2019-03-08T23:51:16.190Z,23.70
2019-03-08T23:53:46.328Z,23.71
2019-03-08T23:56:14.609Z,23.72
2019-03-08T23:58:42.930Z,23.69
